Time;durP1;ratioP1;P1;durP2;ratioP2;P2;SDS_P1;SDS_P2;PMS_P1;PMS_P2;Temp;Humidity;BMP_temperature;BMP_pressure;BME280_temperature;BME280_humidity;BME280_pressure;Samples;Min_cycle;Max_cycle;Signal;HPM_P1;HPM_P2
2022/06/29 00:00:29;;;;;;;9.02;3.70;;;16.40;96.40;;;;;;5013537;28;20056;-73
2022/06/29 00:02:55;;;;;;;;;;;16.40;96.50;;;;;;4997270;28;20053;-74
2022/06/29 00:05:23;;;;;;;7.68;3.28;;;16.40;96.60;;;;;;4996156;28;19925;-73
2022/06/29 00:07:50;;;;;;;10.90;3.97;;;16.40;96.60;;;;;;5013500;28;20072;-73
2022/06/29 00:10:16;;;;;;;10.05;3.65;;;16.30;96.60;;;;;;4996000;28;20057;-74
2022/06/29 00:12:44;;;;;;;10.77;3.90;;;16.30;96.60;;;;;;5013668;28;20042;-73
2022/06/29 00:15:11;;;;;;;14.32;3.92;;;16.30;96.70;;;;;;4996225;28;20053;-77
2022/06/29 00:17:36;;;;;;;;;;;16.30;96.70;;;;;;4999627;28;20076;-74
2022/06/29 00:20:05;;;;;;;10.90;3.73;;;16.30;96.80;;;;;;5014206;28;19922;-73
2022/06/29 00:22:31;;;;;;;11.05;3.75;;;16.20;97.00;;;;;;4997441;28;20299;-74
2022/06/29 00:24:57;;;;;;;11.15;3.58;;;16.20;96.90;;;;;;5014385;28;20404;-74
2022/06/29 00:27:23;;;;;;;9.37;3.80;;;16.20;97.00;;;;;;5014056;28;20121;-72
2022/06/29 00:29:50;;;;;;;8.75;4.00;;;16.20;97.00;;;;;;5014732;28;20100;-72
2022/06/29 00:32:16;;;;;;;8.50;3.85;;;16.10;97.10;;;;;;4981924;28;20058;-74
2022/06/29 00:34:42;;;;;;;14.87;4.20;;;16.10;97.20;;;;;;4997993;28;20064;-74
2022/06/29 00:37:08;;;;;;;8.87;3.90;;;16.10;97.30;;;;;;5016172;28;20085;-73
2022/06/29 00:39:34;;;;;;;14.18;4.50;;;16.00;97.40;;;;;;5019297;28;20081;-74
2022/06/29 00:42:00;;;;;;;11.90;4.13;;;16.00;97.50;;;;;;5002328;28;20061;-73
2022/06/29 00:44:26;;;;;;;13.20;4.30;;;16.00;97.70;;;;;;5005791;28;20112;-74
2022/06/29 00:46:57;;;;;;;9.75;3.88;;;16.00;97.70;;;;;;5005907;28;20293;-73
2022/06/29 00:49:24;;;;;;;9.48;3.80;;;15.90;97.80;;;;;;5006503;28;20077;-73
2022/06/29 00:52:02;;;;;;;8.10;3.65;;;15.90;97.90;;;;;;5022882;28;20057;-73
2022/06/29 00:54:34;;;;;;;10.32;3.92;;;15.90;98.00;;;;;;5026077;28;20053;-74
2022/06/29 00:57:05;;;;;;;9.00;3.80;;;15.80;98.00;;;;;;5026001;28;20157;-76
2022/06/29 00:59:37;;;;;;;14.40;4.30;;;15.80;98.10;;;;;;5025299;28;20046;-76
2022/06/29 01:02:05;;;;;;;10.13;3.80;;;15.80;98.20;;;;;;5008987;28;20050;-79
2022/06/29 01:04:31;;;;;;;17.67;4.28;;;15.70;98.30;;;;;;5007885;28;20050;-74
2022/06/29 01:06:56;;;;;;;11.70;4.22;;;15.70;98.50;;;;;;5025592;28;20046;-73
2022/06/29 01:09:22;;;;;;;10.95;4.18;;;15.70;98.60;;;;;;5006689;28;20049;-73
2022/06/29 01:11:49;;;;;;;10.35;4.32;;;15.70;98.70;;;;;;5006897;28;20046;-73
2022/06/29 01:14:15;;;;;;;11.00;4.35;;;15.60;98.80;;;;;;5024333;28;20497;-78
2022/06/29 01:16:41;;;;;;;11.30;4.18;;;15.60;98.90;;;;;;5007077;28;20045;-74
2022/06/29 01:19:07;;;;;;;7.70;4.40;;;15.60;99.20;;;;;;5024033;28;20034;-72
2022/06/29 01:21:35;;;;;;;14.88;4.53;;;15.60;99.20;;;;;;5004308;28;20069;-73
2022/06/29 01:24:01;;;;;;;13.90;4.68;;;15.60;99.30;;;;;;5021941;28;20129;-73
2022/06/29 01:26:27;;;;;;;8.43;4.10;;;15.60;99.30;;;;;;5020403;28;20115;-75
2022/06/29 01:28:53;;;;;;;9.60;4.32;;;15.50;99.40;;;;;;5019108;28;20062;-73
2022/06/29 01:31:20;;;;;;;13.80;4.72;;;15.50;99.40;;;;;;5019275;28;20131;-73
2022/06/29 01:33:47;;;;;;;13.05;4.68;;;15.50;99.60;;;;;;5018335;28;20053;-73
2022/06/29 01:36:15;;;;;;;7.43;4.78;;;15.50;99.60;;;;;;5018764;28;20085;-75
2022/06/29 01:38:42;;;;;;;9.55;5.00;;;15.50;99.80;;;;;;4987374;28;20053;-74
2022/06/29 01:41:10;;;;;;;10.77;5.20;;;15.40;99.90;;;;;;5020794;28;20065;-74
2022/06/29 01:43:37;;;;;;;11.88;4.90;;;15.40;99.90;;;;;;5020969;28;20153;-73
2022/06/29 01:46:03;;;;;;;13.55;6.07;;;15.40;99.90;;;;;;5001489;28;20434;-74
2022/06/29 01:48:29;;;;;;;7.37;4.97;;;15.30;99.90;;;;;;5001135;28;20046;-76
2022/06/29 01:50:55;;;;;;;10.88;5.50;;;15.30;99.90;;;;;;5019343;28;20138;-75
2022/06/29 01:53:21;;;;;;;9.35;5.32;;;15.20;99.90;;;;;;5022809;28;20054;-73
2022/06/29 01:55:47;;;;;;;14.07;5.20;;;15.10;99.90;;;;;;5025809;28;20046;-74
2022/06/29 01:58:13;;;;;;;10.00;6.00;;;15.20;99.90;;;;;;5008895;28;20083;-73
2022/06/29 02:00:40;;;;;;;12.20;5.57;;;15.10;99.90;;;;;;5020334;28;20156;-76
2022/06/29 02:03:06;;;;;;;15.15;6.00;;;15.10;99.90;;;;;;5017512;28;20058;-77
2022/06/29 02:05:32;;;;;;;13.90;6.15;;;15.10;99.90;;;;;;5017485;28;20053;-78
2022/06/29 02:07:57;;;;;;;14.20;6.55;;;15.00;99.90;;;;;;5022316;28;20131;-77
2022/06/29 02:10:25;;;;;;;10.68;5.97;;;15.10;99.90;;;;;;4999667;28;20046;-76
2022/06/29 02:12:50;;;;;;;17.48;6.90;;;15.10;99.90;;;;;;5000245;28;20056;-76
2022/06/29 02:15:16;;;;;;;10.43;6.15;;;15.00;99.90;;;;;;5000074;28;20140;-76
2022/06/29 02:17:42;;;;;;;11.13;6.65;;;15.10;99.90;;;;;;4999198;28;20054;-77
2022/06/29 02:20:08;;;;;;;17.15;6.55;;;15.10;99.90;;;;;;4983479;28;20046;-76
2022/06/29 02:22:34;;;;;;;16.42;6.63;;;15.10;99.90;;;;;;4999727;28;20049;-77
2022/06/29 02:25:00;;;;;;;13.57;6.87;;;15.10;99.90;;;;;;4982301;28;20396;-77
2022/06/29 02:27:26;;;;;;;10.40;6.25;;;15.20;99.90;;;;;;5016017;28;20222;-75
2022/06/29 02:29:52;;;;;;;13.85;6.68;;;15.20;99.90;;;;;;4983764;28;20046;-77
2022/06/29 02:35:02;;;;;;;15.57;7.05;;;15.30;99.90;;;;;;5018679;28;20050;-78
2022/06/29 02:37:28;;;;;;;11.98;7.10;;;15.30;99.90;;;;;;5017824;28;20128;-76
2022/06/29 02:39:54;;;;;;;15.63;7.03;;;15.40;99.90;;;;;;5016315;28;20464;-75
2022/06/29 02:42:20;;;;;;;15.70;7.15;;;15.40;99.90;;;;;;5015169;28;20056;-76
2022/06/29 02:44:45;;;;;;;14.68;6.72;;;15.40;99.90;;;;;;4999670;28;20532;-75
2022/06/29 02:47:12;;;;;;;17.02;7.05;;;15.30;99.90;;;;;;5015475;28;20065;-76
2022/06/29 02:49:38;;;;;;;;;;;15.30;99.90;;;;;;5016319;28;20045;-76
2022/06/29 02:52:04;;;;;;;12.57;6.70;;;15.30;99.90;;;;;;5016031;28;19921;-76
2022/06/29 02:54:30;;;;;;;12.15;7.00;;;15.30;99.90;;;;;;4998359;28;20085;-76
2022/06/29 02:56:55;;;;;;;12.30;6.68;;;15.30;99.90;;;;;;4998302;28;20045;-76
2022/06/29 02:59:22;;;;;;;11.55;6.50;;;15.30;99.90;;;;;;5015671;28;20041;-75
2022/06/29 03:01:48;;;;;;;10.02;6.25;;;15.30;99.90;;;;;;5015509;28;20041;-76
2022/06/29 03:04:14;;;;;;;14.15;7.38;;;15.20;99.90;;;;;;4981223;28;20486;-76
2022/06/29 03:06:40;;;;;;;15.70;7.57;;;15.20;99.90;;;;;;4982514;28;20085;-76
2022/06/29 03:09:06;;;;;;;13.77;7.57;;;15.20;99.90;;;;;;4997804;28;20405;-76
2022/06/29 03:11:32;;;;;;;17.92;7.43;;;15.20;99.90;;;;;;5000917;28;20065;-77
2022/06/29 03:13:57;;;;;;;17.55;6.78;;;15.10;99.90;;;;;;5015521;28;20377;-77
2022/06/29 03:16:23;;;;;;;12.85;7.50;;;15.10;99.90;;;;;;4982623;28;20054;-77
2022/06/29 03:18:49;;;;;;;13.30;7.65;;;15.10;99.90;;;;;;5016332;28;20045;-77
2022/06/29 03:21:15;;;;;;;19.00;7.43;;;15.10;99.90;;;;;;4999985;28;20057;-77
2022/06/29 03:23:42;;;;;;;14.70;7.60;;;15.10;99.90;;;;;;5017123;28;20085;-76
2022/06/29 03:26:08;;;;;;;12.90;7.75;;;15.10;99.90;;;;;;4999439;28;20491;-76
2022/06/29 03:28:34;;;;;;;16.45;7.68;;;15.10;99.90;;;;;;4998635;28;20082;-76
2022/06/29 03:31:00;;;;;;;14.38;8.13;;;15.10;99.90;;;;;;5015826;28;20072;-76
2022/06/29 03:33:26;;;;;;;15.90;8.30;;;15.10;99.90;;;;;;5017358;28;20046;-76
2022/06/29 03:35:52;;;;;;;16.60;7.75;;;15.10;99.90;;;;;;5002195;28;20458;-76
2022/06/29 03:38:17;;;;;;;15.27;8.15;;;15.10;99.90;;;;;;5016523;28;20492;-76
2022/06/29 03:40:43;;;;;;;20.55;8.23;;;15.10;99.90;;;;;;5017006;28;20120;-76
2022/06/29 03:43:09;;;;;;;15.52;8.02;;;15.10;99.90;;;;;;5017038;28;20049;-76
2022/06/29 03:45:35;;;;;;;14.23;7.85;;;15.20;99.90;;;;;;5016070;28;20049;-76
2022/06/29 03:48:00;;;;;;;15.02;8.07;;;15.20;99.90;;;;;;5015141;28;20053;-76
2022/06/29 03:50:26;;;;;;;18.70;8.32;;;15.20;99.90;;;;;;4998031;28;20042;-76
2022/06/29 03:52:52;;;;;;;16.88;8.68;;;15.30;99.90;;;;;;4966262;28;20466;-76
2022/06/29 03:55:17;;;;;;;17.77;9.10;;;15.30;99.90;;;;;;5017732;28;20451;-77
2022/06/29 03:57:43;;;;;;;15.75;8.30;;;15.30;99.90;;;;;;4967847;28;20063;-76
2022/06/29 04:00:09;;;;;;;16.42;8.82;;;15.40;99.90;;;;;;5015840;28;20088;-76
2022/06/29 04:02:36;;;;;;;13.85;9.15;;;15.40;99.90;;;;;;5016040;28;20107;-77
2022/06/29 04:05:04;;;;;;;19.83;9.02;;;15.40;99.90;;;;;;5017682;28;20041;-77
2022/06/29 04:07:31;;;;;;;19.30;9.05;;;15.40;99.90;;;;;;4999874;28;20053;-76
2022/06/29 04:09:59;;;;;;;19.25;9.52;;;15.40;99.90;;;;;;5016299;28;20045;-79
2022/06/29 04:12:29;;;;;;;15.88;9.30;;;15.40;99.90;;;;;;5015789;28;20134;-77
2022/06/29 04:14:55;;;;;;;15.90;9.73;;;15.40;99.90;;;;;;4996200;28;20497;-77
2022/06/29 04:17:20;;;;;;;16.10;9.68;;;15.40;99.90;;;;;;5015042;28;20057;-76
2022/06/29 04:19:46;;;;;;;18.55;10.35;;;15.30;99.90;;;;;;4997972;28;20056;-76
2022/06/29 04:22:12;;;;;;;17.42;10.02;;;15.30;99.90;;;;;;5023559;28;20046;-75
2022/06/29 04:24:38;;;;;;;19.95;9.27;;;15.30;99.90;;;;;;5021942;28;20049;-77
2022/06/29 04:27:03;;;;;;;20.90;9.50;;;15.40;99.90;;;;;;5015880;28;20081;-77
2022/06/29 04:29:29;;;;;;;13.85;9.00;;;15.40;99.90;;;;;;5014437;28;20054;-78
2022/06/29 04:31:55;;;;;;;15.45;9.45;;;15.50;99.90;;;;;;4999425;28;20103;-77
2022/06/29 04:34:20;;;;;;;17.90;10.00;;;15.50;99.90;;;;;;5015500;28;20064;-78
2022/06/29 04:36:46;;;;;;;18.20;10.38;;;15.60;99.90;;;;;;4999063;28;20045;-78
2022/06/29 04:39:12;;;;;;;19.05;9.95;;;15.60;99.90;;;;;;4981973;28;20485;-76
2022/06/29 04:41:38;;;;;;;14.45;9.73;;;15.60;99.90;;;;;;4996320;28;20061;-78
2022/06/29 04:44:04;;;;;;;22.20;10.48;;;15.70;99.90;;;;;;4979491;28;20082;-76
2022/06/29 04:46:30;;;;;;;22.33;11.13;;;15.70;99.90;;;;;;5013185;28;20353;-77
2022/06/29 04:49:00;;;;;;;19.93;10.67;;;15.80;99.90;;;;;;5013766;28;20049;-77
2022/06/29 04:51:28;;;;;;;17.98;10.27;;;15.80;99.90;;;;;;5014061;28;20053;-76
2022/06/29 04:53:56;;;;;;;17.13;10.00;;;15.90;99.90;;;;;;5013951;28;20049;-76
2022/06/29 04:56:35;;;;;;;20.48;10.70;;;15.90;99.90;;;;;;4996373;28;20046;-75
2022/06/29 04:59:02;;;;;;;15.88;10.27;;;16.00;99.90;;;;;;4998403;28;20099;-77
2022/06/29 05:01:29;;;;;;;17.63;10.55;;;16.00;99.90;;;;;;5015383;28;20049;-76
2022/06/29 05:03:56;;;;;;;18.05;10.65;;;16.00;99.90;;;;;;4995321;28;20107;-77
2022/06/29 05:06:22;;;;;;;19.05;10.38;;;16.10;99.90;;;;;;5014402;28;20041;-79
2022/06/29 05:08:49;;;;;;;17.00;10.17;;;16.10;99.90;;;;;;4997302;28;20049;-78
2022/06/29 05:11:15;;;;;;;17.05;10.55;;;16.20;99.90;;;;;;4996757;28;20637;-77
2022/06/29 05:13:45;;;;;;;16.67;10.30;;;16.20;99.90;;;;;;4996836;28;20137;-78
2022/06/29 05:16:11;;;;;;;16.40;10.70;;;16.30;99.90;;;;;;5014372;28;20145;-77
2022/06/29 05:18:37;;;;;;;18.08;10.95;;;16.30;99.90;;;;;;5014984;28;20038;-75
2022/06/29 05:21:03;;;;;;;17.83;10.40;;;16.40;99.90;;;;;;4996300;28;20137;-77
2022/06/29 05:23:30;;;;;;;16.25;10.90;;;16.40;99.90;;;;;;5014458;28;20072;-78
2022/06/29 05:25:56;;;;;;;;;;;16.50;99.90;;;;;;5014934;28;20046;-76
2022/06/29 05:28:22;;;;;;;18.45;10.65;;;16.50;99.90;;;;;;5017602;28;19921;-77
2022/06/29 05:30:50;;;;;;;19.17;11.25;;;16.50;99.90;;;;;;4983212;28;20046;-78
2022/06/29 05:33:16;;;;;;;16.90;10.73;;;16.60;99.90;;;;;;5017705;28;20121;-77
2022/06/29 05:35:42;;;;;;;22.63;11.55;;;16.60;99.90;;;;;;5017354;28;20074;-77
2022/06/29 05:38:08;;;;;;;20.65;10.90;;;16.70;99.90;;;;;;5017403;28;20053;-75
2022/06/29 05:40:34;;;;;;;16.50;10.88;;;16.70;99.90;;;;;;5017408;28;20050;-76
2022/06/29 05:42:59;;;;;;;20.63;11.27;;;16.70;99.90;;;;;;5017515;28;20062;-76
2022/06/29 05:45:26;;;;;;;21.77;11.97;;;16.80;99.90;;;;;;5017035;28;20049;-76
2022/06/29 05:47:53;;;;;;;21.38;11.55;;;16.80;99.90;;;;;;5000252;28;20066;-77
2022/06/29 05:50:22;;;;;;;18.83;10.80;;;16.90;99.90;;;;;;5017727;28;20052;-78
2022/06/29 05:52:49;;;;;;;18.52;10.95;;;16.90;99.90;;;;;;5017771;28;20056;-78
2022/06/29 05:55:15;;;;;;;18.33;11.30;;;17.00;99.90;;;;;;5017194;28;20053;-77
2022/06/29 05:57:41;;;;;;;22.85;11.50;;;17.00;99.90;;;;;;4999240;28;20181;-76
2022/06/29 06:00:07;;;;;;;16.07;11.27;;;17.10;99.90;;;;;;5017557;28;20173;-77
2022/06/29 06:02:39;;;;;;;20.52;12.27;;;17.10;99.90;;;;;;5016994;28;20195;-77
2022/06/29 06:05:06;;;;;;;17.45;11.20;;;17.20;99.90;;;;;;4999944;28;20060;-77
2022/06/29 06:07:32;;;;;;;;;;;17.20;99.90;;;;;;5017889;28;20045;-78
2022/06/29 06:09:57;;;;;;;19.13;11.17;;;17.20;99.90;;;;;;4998822;28;19944;-77
2022/06/29 06:12:24;;;;;;;20.10;11.20;;;17.30;99.90;;;;;;4998971;28;20045;-75
2022/06/29 06:14:49;;;;;;;22.43;11.43;;;17.30;99.90;;;;;;4999052;28;20046;-77
2022/06/29 06:17:15;;;;;;;17.38;11.18;;;17.50;99.90;;;;;;4982438;28;20057;-77
2022/06/29 06:19:41;;;;;;;22.08;12.25;;;17.50;99.90;;;;;;4982991;28;20038;-76
2022/06/29 06:22:07;;;;;;;19.93;10.77;;;17.50;99.90;;;;;;4999537;28;20042;-78
2022/06/29 06:24:32;;;;;;;18.67;10.93;;;17.50;99.90;;;;;;4998317;28;20089;-76
2022/06/29 06:26:58;;;;;;;20.52;10.63;;;17.60;99.90;;;;;;4998674;28;20052;-78
2022/06/29 06:29:24;;;;;;;20.90;10.38;;;17.70;99.90;;;;;;5016214;28;20085;-76
2022/06/29 06:31:50;;;;;;;17.40;10.23;;;17.80;99.90;;;;;;4999189;28;20050;-79
2022/06/29 06:34:15;;;;;;;18.73;10.53;;;18.00;99.90;;;;;;5016491;28;20050;-75
2022/06/29 06:36:41;;;;;;;17.40;9.88;;;18.00;99.90;;;;;;4998426;28;20125;-76
2022/06/29 06:39:07;;;;;;;18.80;9.77;;;18.10;99.90;;;;;;4997585;28;20092;-76
2022/06/29 06:41:33;;;;;;;14.50;9.00;;;18.30;99.90;;;;;;5017020;28;20200;-77
2022/06/29 06:44:00;;;;;;;16.87;8.67;;;18.50;99.90;;;;;;4997778;28;20061;-77
2022/06/29 06:46:33;;;;;;;15.18;8.52;;;18.60;99.90;;;;;;4998855;28;20062;-77
2022/06/29 06:48:59;;;;;;;15.57;8.13;;;18.70;99.90;;;;;;4998634;28;20501;-76
2022/06/29 06:51:25;;;;;;;15.37;8.13;;;18.90;99.90;;;;;;4997721;28;20084;-75
2022/06/29 06:53:52;;;;;;;16.30;7.90;;;19.00;99.90;;;;;;4997624;28;20389;-74
2022/06/29 06:56:18;;;;;;;13.38;7.28;;;19.20;99.90;;;;;;4997769;28;20046;-75
2022/06/29 06:58:44;;;;;;;16.33;8.05;;;19.30;99.90;;;;;;5015641;28;20041;-77
2022/06/29 07:01:10;;;;;;;14.13;7.43;;;19.50;99.90;;;;;;5015440;28;20061;-75
2022/06/29 07:03:37;;;;;;;13.00;6.97;;;19.60;99.90;;;;;;4997853;28;20112;-79
2022/06/29 07:06:08;;;;;;;13.32;6.13;;;19.70;99.90;;;;;;4999333;28;20394;-77
2022/06/29 07:08:37;;;;;;;13.48;6.63;;;19.90;99.90;;;;;;5015308;28;20073;-78
2022/06/29 07:11:04;;;;;;;16.77;6.00;;;19.90;99.90;;;;;;5017724;28;20073;-77
2022/06/29 07:13:33;;;;;;;11.15;6.30;;;20.10;99.90;;;;;;5016569;28;20050;-77
2022/06/29 07:15:59;;;;;;;11.27;6.15;;;20.20;99.90;;;;;;5015169;28;20050;-76
2022/06/29 07:18:29;;;;;;;14.43;6.30;;;20.30;99.90;;;;;;5001720;28;20057;-75
2022/06/29 07:20:58;;;;;;;13.55;5.95;;;20.40;99.60;;;;;;5018971;28;20068;-77
2022/06/29 07:23:24;;;;;;;10.27;5.55;;;20.50;99.20;;;;;;4999833;28;20402;-78
2022/06/29 07:25:50;;;;;;;9.07;5.00;;;20.60;99.00;;;;;;5016212;28;20038;-78
2022/06/29 07:28:15;;;;;;;9.57;4.73;;;20.70;98.20;;;;;;5017306;28;20052;-80
2022/06/29 07:30:41;;;;;;;8.70;4.83;;;20.90;97.60;;;;;;4999281;28;20046;-77
2022/06/29 07:33:09;;;;;;;9.53;4.97;;;21.00;97.40;;;;;;4997548;28;20123;-79
2022/06/29 07:35:35;;;;;;;9.88;4.47;;;21.10;96.60;;;;;;4998816;28;20050;-78
2022/06/29 07:38:01;;;;;;;8.00;4.32;;;21.30;95.90;;;;;;5014509;28;20124;-76
2022/06/29 07:40:27;;;;;;;8.27;4.70;;;21.30;96.20;;;;;;5014603;28;20042;-75
2022/06/29 07:42:53;;;;;;;11.43;4.10;;;21.40;95.80;;;;;;5015239;28;20054;-78
2022/06/29 07:45:19;;;;;;;9.43;4.55;;;21.40;95.40;;;;;;4981446;28;20065;-76
2022/06/29 07:47:45;;;;;;;10.10;4.97;;;21.60;94.70;;;;;;4983286;28;20050;-81
2022/06/29 07:50:14;;;;;;;12.93;5.57;;;21.80;93.60;;;;;;5017639;28;20105;-80
2022/06/29 07:52:41;;;;;;;12.40;4.80;;;21.90;93.30;;;;;;4983498;28;20046;-76
2022/06/29 07:55:08;;;;;;;14.25;6.07;;;21.90;93.60;;;;;;5000304;28;20050;-77
2022/06/29 07:57:34;;;;;;;15.57;7.03;;;22.00;93.60;;;;;;4981977;28;20147;-78
2022/06/29 08:00:00;;;;;;;14.00;5.97;;;22.10;92.10;;;;;;5019153;28;20065;-81
2022/06/29 08:02:26;;;;;;;13.20;6.30;;;22.20;91.20;;;;;;4999468;28;20045;-76
2022/06/29 08:04:51;;;;;;;13.80;5.90;;;22.20;91.20;;;;;;4980986;28;20092;-79
2022/06/29 08:07:17;;;;;;;11.87;5.43;;;22.30;91.00;;;;;;5017197;28;20045;-76
2022/06/29 08:09:44;;;;;;;14.13;6.00;;;22.30;91.60;;;;;;5015500;28;20438;-79
2022/06/29 08:12:10;;;;;;;;;;;22.40;91.90;;;;;;4997633;28;20070;-81
2022/06/29 08:14:35;;;;;;;10.30;4.90;;;22.40;92.00;;;;;;5013929;28;19921;-78
2022/06/29 08:17:01;;;;;;;10.00;4.87;;;22.50;91.70;;;;;;4980045;28;20085;-80
2022/06/29 08:19:27;;;;;;;10.33;4.80;;;22.60;91.80;;;;;;5015061;28;20096;-78
2022/06/29 08:21:53;;;;;;;9.47;4.83;;;22.70;91.30;;;;;;4998156;28;20057;-81
2022/06/29 08:24:19;;;;;;;14.23;5.38;;;22.90;90.60;;;;;;4998641;28;20053;-79
2022/06/29 08:26:44;;;;;;;9.37;4.60;;;22.90;89.20;;;;;;4999269;28;20038;-77
2022/06/29 08:29:11;;;;;;;8.07;4.13;;;22.80;90.10;;;;;;5000520;28;20045;-77
2022/06/29 08:31:37;;;;;;;9.18;4.38;;;22.80;90.50;;;;;;5017557;28;20458;-79
2022/06/29 08:34:06;;;;;;;8.88;4.55;;;22.90;90.30;;;;;;4982750;28;20237;-79
2022/06/29 08:36:32;;;;;;;8.88;4.30;;;23.00;90.10;;;;;;4997171;28;20041;-82
2022/06/29 08:38:57;;;;;;;7.63;3.73;;;23.20;89.50;;;;;;4997399;28;20065;-78
2022/06/29 08:41:25;;;;;;;9.83;4.00;;;23.30;88.90;;;;;;4995829;28;20178;-78
2022/06/29 08:43:51;;;;;;;7.35;3.80;;;23.50;89.10;;;;;;4978824;28;20128;-79
2022/06/29 08:46:17;;;;;;;8.13;4.03;;;23.80;86.60;;;;;;4977664;28;20080;-76
2022/06/29 08:48:43;;;;;;;8.80;3.93;;;24.00;84.70;;;;;;4994107;28;20449;-83
2022/06/29 08:51:12;;;;;;;11.80;4.00;;;24.20;83.90;;;;;;4994929;28;20402;-79
2022/06/29 08:53:40;;;;;;;7.35;3.65;;;24.30;83.30;;;;;;4978685;28;20058;-77
2022/06/29 08:56:07;;;;;;;7.88;4.15;;;24.50;82.30;;;;;;4995501;28;20054;-81
2022/06/29 08:58:35;;;;;;;6.00;3.47;;;24.60;82.00;;;;;;4980132;28;20081;-79
2022/06/29 09:01:00;;;;;;;9.48;3.53;;;24.60;81.70;;;;;;4995304;28;20405;-80
2022/06/29 09:03:26;;;;;;;6.37;3.50;;;24.60;83.50;;;;;;5000849;28;20050;-79
2022/06/29 09:05:54;;;;;;;6.10;3.10;;;24.50;84.10;;;;;;4996515;28;20042;-78
2022/06/29 09:08:21;;;;;;;11.23;3.65;;;24.40;84.50;;;;;;4996699;28;20054;-79
2022/06/29 09:10:47;;;;;;;7.32;3.28;;;24.40;82.60;;;;;;4998331;28;20050;-77
2022/06/29 09:13:20;;;;;;;;;;;24.20;81.40;;;;;;4983732;28;20038;-79
2022/06/29 09:15:47;;;;;;;8.43;3.70;;;24.10;83.70;;;;;;4996195;28;19921;-77
2022/06/29 09:18:26;;;;;;;8.95;3.83;;;24.10;82.80;;;;;;4983185;28;20145;-77
2022/06/29 09:20:55;;;;;;;12.52;3.65;;;24.10;82.90;;;;;;4998865;28;20065;-78
2022/06/29 09:23:21;;;;;;;7.75;3.50;;;24.10;83.20;;;;;;4998527;28;20136;-80
2022/06/29 09:25:47;;;;;;;11.57;3.97;;;24.20;82.40;;;;;;4979818;28;20084;-79
2022/06/29 09:28:38;;;;;;;7.90;3.70;;;24.30;83.10;;;;;;4997945;28;20097;-78
2022/06/29 09:31:06;;;;;;;10.30;3.35;;;24.60;82.70;;;;;;4978233;28;20062;-79
2022/06/29 09:33:33;;;;;;;11.00;3.67;;;24.70;82.60;;;;;;4996037;28;20050;-77
2022/06/29 09:36:04;;;;;;;8.65;3.53;;;24.90;81.90;;;;;;4996844;28;20450;-77
2022/06/29 09:38:30;;;;;;;9.55;3.83;;;25.10;78.40;;;;;;4979538;28;20073;-77
2022/06/29 09:41:11;;;;;;;9.40;3.63;;;25.20;80.30;;;;;;4998500;28;20054;-81
2022/06/29 09:43:41;;;;;;;11.38;3.75;;;25.10;78.50;;;;;;4996638;28;20049;-77
2022/06/29 09:46:10;;;;;;;9.27;3.45;;;25.00;80.00;;;;;;5014371;28;20046;-77
2022/06/29 09:48:38;;;;;;;7.15;3.35;;;25.00;80.70;;;;;;5015264;28;20097;-78
2022/06/29 09:51:30;;;;;;;7.55;3.40;;;25.10;80.30;;;;;;4996650;28;20053;-77
2022/06/29 09:54:07;;;;;;;8.27;3.20;;;25.20;80.80;;;;;;5017421;28;20355;-77
2022/06/29 09:56:34;;;;;;;10.38;3.55;;;25.20;79.90;;;;;;4998587;28;20159;-81
2022/06/29 09:59:01;;;;;;;7.25;3.75;;;25.40;77.00;;;;;;5014521;28;20066;-78
2022/06/29 10:04:13;;;;;;;8.30;3.63;;;25.40;76.20;;;;;;4997333;28;20046;-77
2022/06/29 10:06:39;;;;;;;7.80;3.50;;;25.50;77.30;;;;;;5013663;28;20504;-76
2022/06/29 10:09:06;;;;;;;7.40;3.25;;;25.50;77.10;;;;;;5015867;28;20042;-75
2022/06/29 10:14:46;;;;;;;8.98;3.78;;;25.70;76.80;;;;;;5002584;28;20050;-75
2022/06/29 10:17:30;;;;;;;8.50;3.80;;;25.80;77.70;;;;;;5006925;28;20114;-76
2022/06/29 10:20:27;;;;;;;13.43;4.13;;;25.70;77.40;;;;;;5025503;28;20038;-79
2022/06/29 10:22:53;;;;;;;11.68;4.95;;;25.80;75.50;;;;;;4992383;28;20050;-78
2022/06/29 10:25:27;;;;;;;10.43;4.15;;;25.70;75.20;;;;;;4970471;28;20069;-75
2022/06/29 10:28:16;;;;;;;9.63;4.05;;;25.70;75.80;;;;;;5001989;28;20061;-76
2022/06/29 10:30:44;;;;;;;7.05;4.00;;;25.90;76.90;;;;;;5018186;28;20053;-76
2022/06/29 10:33:28;;;;;;;7.88;4.22;;;25.90;77.70;;;;;;5000963;28;20441;-80
2022/06/29 10:36:05;;;;;;;8.55;4.03;;;26.10;76.20;;;;;;5024674;28;20057;-79
2022/06/29 10:38:35;;;;;;;10.48;4.97;;;26.20;77.20;;;;;;5006730;28;20104;-79
2022/06/29 10:43:07;;;;;;;10.07;4.70;;;26.30;77.20;;;;;;5008180;28;20092;-79
2022/06/29 10:43:54;;;;;;;17.60;4.93;;;26.30;77.00;;;;;;4993302;28;20058;-78
2022/06/29 10:46:22;;;;;;;9.83;4.60;;;26.40;75.70;;;;;;4993304;28;20135;-77
2022/06/29 10:49:18;;;;;;;10.23;4.95;;;26.30;76.50;;;;;;4977147;28;20089;-76
2022/06/29 10:51:49;;;;;;;10.57;4.55;;;26.20;76.80;;;;;;5026996;28;20084;-77
2022/06/29 10:54:23;;;;;;;12.75;5.00;;;26.30;77.30;;;;;;5024947;28;20517;-78
2022/06/29 10:56:49;;;;;;;8.88;4.90;;;26.20;77.30;;;;;;5020352;28;20050;-79
2022/06/29 10:59:38;;;;;;;10.52;4.70;;;26.30;76.50;;;;;;5001995;28;20143;-77
2022/06/29 11:02:13;;;;;;;11.00;5.03;;;26.50;75.40;;;;;;5021568;28;20109;-79
2022/06/29 11:04:40;;;;;;;14.23;4.90;;;26.60;75.00;;;;;;5020044;28;20064;-81
2022/06/29 11:12:54;;;;;;;9.98;4.88;;;26.70;71.50;;;;;;5000032;28;20061;-82
2022/06/29 11:15:42;;;;;;;9.50;4.93;;;26.70;70.20;;;;;;5018823;28;20041;-82
2022/06/29 11:18:13;;;;;;;8.88;4.72;;;26.80;71.00;;;;;;5021585;28;20050;-77
2022/06/29 11:20:42;;;;;;;10.02;4.70;;;26.90;71.70;;;;;;5018714;28;20049;-78
2022/06/29 11:23:29;;;;;;;10.38;4.60;;;27.00;71.80;;;;;;5020932;28;20125;-78
2022/06/29 11:25:55;;;;;;;8.73;4.70;;;27.10;69.50;;;;;;5002967;28;20045;-80
2022/06/29 11:28:26;;;;;;;9.98;5.28;;;27.20;68.90;;;;;;4985566;28;20081;-78
2022/06/29 11:31:12;;;;;;;8.05;4.72;;;27.30;68.20;;;;;;4989812;28;20061;-77
2022/06/29 11:33:46;;;;;;;7.65;4.50;;;27.50;68.90;;;;;;5004654;28;20068;-77
2022/06/29 11:36:16;;;;;;;10.88;4.72;;;27.70;68.30;;;;;;5019143;28;20054;-82
2022/06/29 11:38:44;;;;;;;11.00;5.20;;;27.80;66.50;;;;;;5020995;28;20048;-76
2022/06/29 11:41:16;;;;;;;8.25;5.05;;;27.80;66.60;;;;;;5018654;28;20116;-79
2022/06/29 11:43:43;;;;;;;8.75;5.15;;;27.80;67.30;;;;;;5003475;28;20050;-79
2022/06/29 11:46:23;;;;;;;11.18;5.07;;;27.80;66.90;;;;;;5004396;28;20085;-81
2022/06/29 11:51:36;;;;;;;7.95;4.65;;;27.60;67.90;;;;;;5003948;28;20054;-79
2022/06/29 11:54:07;;;;;;;9.95;5.35;;;27.50;67.70;;;;;;5023546;28;20097;-79
2022/06/29 11:56:33;;;;;;;10.60;5.10;;;27.40;68.00;;;;;;5004239;28;20050;-78
2022/06/29 11:59:04;;;;;;;10.57;5.10;;;27.30;67.60;;;;;;4989210;28;20104;-81
2022/06/29 12:01:33;;;;;;;12.75;5.70;;;27.30;68.50;;;;;;5023984;28;20061;-79
2022/06/29 12:04:01;;;;;;;14.45;6.68;;;27.20;69.30;;;;;;5003564;28;20078;-80
2022/06/29 12:06:36;;;;;;;14.70;6.32;;;27.20;67.50;;;;;;5003746;28;20061;-78
2022/06/29 12:09:04;;;;;;;11.05;5.63;;;27.20;68.20;;;;;;5020188;28;20213;-80
2022/06/29 12:11:30;;;;;;;12.20;5.45;;;27.20;68.90;;;;;;5002806;28;20057;-76
2022/06/29 12:13:56;;;;;;;10.35;5.00;;;27.30;69.50;;;;;;5003330;28;20085;-79
2022/06/29 12:16:22;;;;;;;12.50;5.00;;;27.50;69.60;;;;;;5020317;28;20050;-78
2022/06/29 12:18:48;;;;;;;15.48;5.70;;;27.40;68.80;;;;;;5002829;28;20132;-78
2022/06/29 12:21:14;;;;;;;10.00;5.63;;;27.20;68.70;;;;;;5002109;28;20056;-80
2022/06/29 12:23:40;;;;;;;12.27;6.18;;;27.20;68.20;;;;;;5019231;28;20057;-81
2022/06/29 12:26:06;;;;;;;14.93;5.20;;;27.10;68.10;;;;;;5001526;28;20046;-78
2022/06/29 12:28:32;;;;;;;11.93;6.32;;;27.00;68.80;;;;;;4984153;28;20076;-83
2022/06/29 12:30:58;;;;;;;12.00;5.75;;;26.90;69.00;;;;;;5004743;28;20049;-80
2022/06/29 12:33:23;;;;;;;11.38;6.18;;;26.80;70.20;;;;;;5022066;28;20516;-78
2022/06/29 12:35:52;;;;;;;14.52;6.60;;;26.90;70.10;;;;;;4999885;28;20474;-81
2022/06/29 12:38:19;;;;;;;14.20;6.53;;;26.90;70.30;;;;;;5001161;28;20064;-80
2022/06/29 12:40:45;;;;;;;11.52;6.03;;;26.80;70.00;;;;;;5018250;28;20049;-80
2022/06/29 12:43:11;;;;;;;11.68;6.28;;;26.70;71.10;;;;;;5017823;28;20144;-80
2022/06/29 12:45:39;;;;;;;13.80;6.57;;;26.80;71.30;;;;;;4985211;28;20053;-78
2022/06/29 12:48:07;;;;;;;15.02;7.22;;;26.70;71.50;;;;;;5016686;28;20046;-83
2022/06/29 12:50:33;;;;;;;11.43;6.00;;;26.70;71.30;;;;;;5018263;28;20374;-79
2022/06/29 12:52:58;;;;;;;12.57;6.18;;;26.70;71.60;;;;;;5018787;28;20057;-77
2022/06/29 12:55:24;;;;;;;11.75;6.15;;;26.80;71.00;;;;;;4984930;28;20545;-80
2022/06/29 12:57:50;;;;;;;13.75;6.63;;;26.80;71.40;;;;;;5000136;28;20046;-77
2022/06/29 13:00:16;;;;;;;11.23;5.63;;;26.90;69.80;;;;;;5019238;28;20119;-79